Time;durP1;ratioP1;P1;durP2;ratioP2;P2;SDS_P1;SDS_P2;PMS_P1;PMS_P2;Temp;Humidity;BMP_temperature;BMP_pressure;BME280_temperature;BME280_humidity;BME280_pressure;Samples;Min_cycle;Max_cycle;Signal;HPM_P1;HPM_P2
2023/04/04 00:01:03;;;;;;;2.08;0.68;;;;;;;0.64;41.21;103212.66;4978424;28;20686;-75
2023/04/04 00:03:28;;;;;;;1.40;0.20;;;;;;;0.61;41.54;103209.06;4973030;28;20127;-75
2023/04/04 00:05:54;;;;;;;1.58;0.30;;;;;;;0.59;41.19;103205.56;4998714;28;20039;-75
2023/04/04 00:08:20;;;;;;;3.47;0.40;;;;;;;0.55;41.66;103202.00;4984281;28;20030;-75
2023/04/04 00:10:46;;;;;;;1.60;0.20;;;;;;;0.48;41.57;103194.88;4977124;28;20392;-72
2023/04/04 00:13:12;;;;;;;7.80;0.75;;;;;;;0.47;41.70;103196.56;4984621;28;20096;-73
2023/04/04 00:15:37;;;;;;;0.98;0.30;;;;;;;0.45;41.75;103198.19;4969625;28;20042;-73
2023/04/04 00:18:03;;;;;;;1.30;0.30;;;;;;;0.42;41.93;103190.34;4985938;28;20113;-73
2023/04/04 00:20:31;;;;;;;2.05;0.40;;;;;;;0.37;41.83;103188.44;4980840;28;20041;-73
2023/04/04 00:22:57;;;;;;;0.93;0.28;;;;;;;0.23;42.15;103177.56;4984613;28;20123;-73
2023/04/04 00:25:23;;;;;;;2.63;0.38;;;;;;;0.17;42.35;103182.50;4982221;28;20121;-73
2023/04/04 00:27:49;;;;;;;1.80;0.43;;;;;;;0.13;42.57;103185.75;4982153;28;20057;-76
2023/04/04 00:30:14;;;;;;;2.72;0.52;;;;;;;0.21;41.92;103169.81;4982058;28;20130;-71
2023/04/04 00:32:40;;;;;;;3.55;0.40;;;;;;;0.11;42.03;103177.97;4976934;28;20056;-71
2023/04/04 00:35:06;;;;;;;4.25;0.43;;;;;;;0.11;42.31;103180.53;4993682;28;20053;-75
2023/04/04 00:37:32;;;;;;;1.25;0.25;;;;;;;0.06;42.28;103171.75;4996960;28;20057;-76
2023/04/04 00:39:58;;;;;;;3.20;0.20;;;;;;;0.04;42.61;103165.69;5000341;28;20096;-72
2023/04/04 00:42:23;;;;;;;5.38;0.30;;;;;;;0.02;42.39;103173.31;5002438;28;20034;-71
2023/04/04 00:44:51;;;;;;;3.97;0.38;;;;;;;0.05;42.87;103176.03;4976320;28;20586;-72
2023/04/04 00:47:18;;;;;;;2.30;0.50;;;;;;;-0.05;43.10;103170.44;4977046;28;20148;-71
2023/04/04 00:49:44;;;;;;;1.15;0.28;;;;;;;-0.10;42.97;103174.50;4980951;28;20042;-72
2023/04/04 00:52:10;;;;;;;2.53;0.43;;;;;;;-0.17;43.03;103174.28;4986496;28;20055;-72
2023/04/04 00:54:35;;;;;;;2.25;0.30;;;;;;;-0.26;42.86;103170.41;4983955;28;20045;-72
2023/04/04 00:57:03;;;;;;;1.80;0.50;;;;;;;-0.36;43.21;103174.31;4989765;28;20049;-71
2023/04/04 00:59:28;;;;;;;4.43;0.50;;;;;;;-0.56;43.87;103166.63;4999726;28;20034;-73
2023/04/04 01:01:54;;;;;;;2.20;0.40;;;;;;;-0.63;44.15;103167.16;4980997;28;20049;-71
2023/04/04 01:04:20;;;;;;;1.45;0.60;;;;;;;-0.73;44.60;103167.56;5001143;28;20499;-76
2023/04/04 01:06:45;;;;;;;1.35;0.40;;;;;;;-0.66;44.01;103163.56;4977629;28;20088;-72
2023/04/04 01:09:11;;;;;;;1.92;0.68;;;;;;;-0.65;44.39;103160.22;4984282;28;20510;-74
2023/04/04 01:11:38;;;;;;;3.67;0.57;;;;;;;-0.61;44.09;103154.41;4978852;28;20503;-73
2023/04/04 01:14:05;;;;;;;2.22;0.57;;;;;;;-0.63;44.24;103164.59;4987293;28;20210;-73
2023/04/04 01:16:32;;;;;;;1.35;0.47;;;;;;;-0.69;44.32;103164.31;5001120;28;20030;-73
2023/04/04 01:18:57;;;;;;;3.88;0.73;;;;;;;-0.71;44.63;103160.81;4986753;28;20069;-73
2023/04/04 01:21:26;;;;;;;2.13;0.30;;;;;;;-0.72;44.69;103159.06;4998568;28;20413;-74
2023/04/04 01:24:00;;;;;;;4.05;0.50;;;;;;;-0.64;44.46;103164.53;4981221;28;20085;-75
2023/04/04 01:26:30;;;;;;;2.17;0.30;;;;;;;-0.68;44.87;103166.09;4992627;28;20104;-74
2023/04/04 01:28:59;;;;;;;4.03;0.20;;;;;;;-0.76;44.67;103155.47;5001061;28;20463;-72
2023/04/04 01:31:40;;;;;;;3.42;0.73;;;;;;;-0.84;45.04;103155.94;4983709;28;20176;-72
2023/04/04 01:34:19;;;;;;;4.13;0.73;;;;;;;-0.93;45.33;103156.41;4985409;28;20123;-73
2023/04/04 01:37:00;;;;;;;1.38;0.32;;;;;;;-0.97;45.36;103149.41;4983507;28;20065;-72
2023/04/04 01:39:31;;;;;;;1.27;0.30;;;;;;;-0.89;44.94;103154.88;4984598;28;20100;-74
2023/04/04 01:41:59;;;;;;;0.85;0.30;;;;;;;-0.97;45.32;103152.84;4999820;28;20085;-75
2023/04/04 01:44:25;;;;;;;2.88;0.40;;;;;;;-0.92;45.16;103147.91;4983380;28;20081;-74
2023/04/04 01:46:53;;;;;;;1.27;0.28;;;;;;;-1.07;45.44;103144.63;4998020;28;20673;-73
2023/04/04 01:49:18;;;;;;;2.45;0.38;;;;;;;-1.08;45.64;103143.75;4965277;28;20124;-72
2023/04/04 01:51:45;;;;;;;1.67;0.38;;;;;;;-1.12;45.49;103136.72;4982983;28;20099;-74
2023/04/04 01:54:11;;;;;;;1.50;0.57;;;;;;;-1.05;45.18;103141.34;4959603;28;20099;-74
2023/04/04 01:56:36;;;;;;;2.08;0.75;;;;;;;-1.01;45.43;103140.69;4982709;28;20738;-73
2023/04/04 01:59:02;;;;;;;1.95;0.20;;;;;;;-0.87;45.14;103137.84;4983682;28;20120;-71
2023/04/04 02:01:27;;;;;;;7.82;0.75;;;;;;;-1.04;45.67;103145.69;4997733;28;20111;-71
2023/04/04 02:03:53;;;;;;;1.75;0.43;;;;;;;-1.11;45.96;103137.59;4983684;28;20038;-71
2023/04/04 02:06:19;;;;;;;4.95;0.70;;;;;;;-1.00;45.79;103145.00;4982905;28;20128;-70
2023/04/04 02:08:45;;;;;;;2.67;0.45;;;;;;;-0.93;45.66;103147.84;4978211;28;20042;-70
2023/04/04 02:11:11;;;;;;;2.28;0.40;;;;;;;-1.03;45.81;103142.31;4978401;28;20076;-70
2023/04/04 02:13:40;;;;;;;2.40;0.50;;;;;;;-0.97;45.72;103137.44;4983318;28;20033;-70
2023/04/04 02:16:06;;;;;;;1.10;0.47;;;;;;;-0.94;45.84;103136.69;4987485;28;20137;-71
2023/04/04 02:18:32;;;;;;;1.23;0.60;;;;;;;-1.05;45.94;103133.66;4978961;28;20103;-71
2023/04/04 02:20:58;;;;;;;1.67;0.50;;;;;;;-1.11;46.00;103128.19;4979878;28;20131;-71
2023/04/04 02:23:23;;;;;;;1.17;0.38;;;;;;;-1.03;45.94;103126.03;4978428;28;20053;-71
2023/04/04 02:25:52;;;;;;;1.02;0.52;;;;;;;-0.98;45.66;103130.53;4982127;28;20144;-71
2023/04/04 02:28:18;;;;;;;1.40;0.30;;;;;;;-0.94;45.63;103130.69;4975044;28;20125;-71
2023/04/04 02:30:43;;;;;;;3.40;0.70;;;;;;;-1.03;45.87;103120.91;4986829;28;20147;-70
2023/04/04 02:33:09;;;;;;;3.58;0.45;;;;;;;-1.00;45.60;103121.03;4985574;28;20100;-75
2023/04/04 02:35:35;;;;;;;5.57;0.70;;;;;;;-0.95;45.46;103123.78;4986828;28;20043;-75
2023/04/04 02:38:00;;;;;;;3.22;0.30;;;;;;;-1.04;45.53;103121.69;4976804;28;20622;-76
2023/04/04 02:40:38;;;;;;;2.95;0.73;;;;;;;-1.12;45.54;103121.34;4983110;28;20034;-74
2023/04/04 02:43:04;;;;;;;2.72;0.25;;;;;;;-1.19;45.54;103127.88;5000494;28;20060;-75
2023/04/04 02:45:30;;;;;;;0.95;0.32;;;;;;;-1.24;46.02;103125.91;4964317;28;20038;-75
2023/04/04 02:48:09;;;;;;;2.03;0.30;;;;;;;-1.28;46.08;103129.16;4982658;28;20130;-74
2023/04/04 02:50:41;;;;;;;3.22;0.50;;;;;;;-1.25;46.06;103124.16;4984555;28;20042;-75
2023/04/04 02:53:09;;;;;;;1.02;0.30;;;;;;;-1.27;46.17;103116.38;5000222;28;20030;-75
2023/04/04 02:55:35;;;;;;;4.45;0.70;;;;;;;-1.20;46.08;103117.53;4984523;28;20042;-76
2023/04/04 02:58:01;;;;;;;1.77;0.75;;;;;;;-1.18;46.42;103116.78;4999926;28;20022;-75
2023/04/04 03:00:27;;;;;;;2.15;0.40;;;;;;;-1.15;45.99;103110.94;4976268;28;20042;-75
2023/04/04 03:02:54;;;;;;;1.85;0.32;;;;;;;-1.31;46.11;103104.22;4978612;28;20034;-74
2023/04/04 03:05:26;;;;;;;1.95;0.30;;;;;;;-1.32;46.08;103102.47;4968137;28;20054;-75
2023/04/04 03:07:56;;;;;;;1.65;0.70;;;;;;;-1.45;46.04;103100.16;4999406;28;20038;-75
2023/04/04 03:10:23;;;;;;;2.45;0.47;;;;;;;-1.49;46.75;103100.81;4983552;28;20034;-75
2023/04/04 03:12:49;;;;;;;6.22;0.73;;;;;;;-1.39;46.62;103090.19;4976406;28;20033;-73
2023/04/04 03:15:16;;;;;;;2.10;0.40;;;;;;;-1.47;46.84;103097.50;4996825;28;20081;-75
2023/04/04 03:17:42;;;;;;;1.20;0.40;;;;;;;-1.44;46.94;103092.53;4969838;28;20053;-75
2023/04/04 03:20:08;;;;;;;2.67;0.63;;;;;;;-1.46;47.33;103091.59;4974211;28;20144;-75
2023/04/04 03:22:33;;;;;;;2.60;0.85;;;;;;;-1.45;47.06;103090.78;4998384;28;20052;-75
2023/04/04 03:25:01;;;;;;;0.85;0.40;;;;;;;-1.57;46.87;103089.34;4996580;28;20670;-75
2023/04/04 03:27:26;;;;;;;2.90;0.40;;;;;;;-1.60;47.21;103084.94;4982459;28;20037;-74
2023/04/04 03:29:52;;;;;;;3.95;0.75;;;;;;;-1.70;47.16;103083.63;4982153;28;21052;-74
2023/04/04 03:32:18;;;;;;;2.58;0.50;;;;;;;-1.68;47.15;103081.16;4963561;28;20044;-73
2023/04/04 03:34:43;;;;;;;1.80;0.68;;;;;;;-1.60;47.23;103082.38;4977007;28;20139;-73
2023/04/04 03:37:09;;;;;;;2.28;0.40;;;;;;;-1.76;47.26;103087.59;4983147;28;20037;-73
2023/04/04 03:39:36;;;;;;;2.15;0.45;;;;;;;-1.73;47.31;103087.72;4997286;28;20821;-73
2023/04/04 03:42:02;;;;;;;4.45;0.50;;;;;;;-1.71;47.25;103093.81;4978869;28;20034;-73
2023/04/04 03:44:27;;;;;;;1.40;0.50;;;;;;;-1.63;47.38;103089.94;4975683;28;20041;-74
2023/04/04 03:46:53;;;;;;;4.00;0.47;;;;;;;-1.61;47.36;103103.72;4974899;28;20041;-76
2023/04/04 03:49:20;;;;;;;1.30;0.40;;;;;;;-1.57;47.20;103094.47;4984425;28;20370;-71
2023/04/04 03:51:46;;;;;;;7.38;0.60;;;;;;;-1.55;47.00;103103.09;4982459;28;20116;-72
2023/04/04 03:54:12;;;;;;;1.77;0.70;;;;;;;-1.73;47.36;103103.13;4996918;28;20034;-79
2023/04/04 03:56:37;;;;;;;1.48;0.70;;;;;;;-1.62;47.05;103105.41;4967665;28;20037;-77
2023/04/04 03:59:05;;;;;;;1.83;0.60;;;;;;;-1.63;47.09;103105.31;4983322;28;20029;-76
2023/04/04 04:01:30;;;;;;;3.03;0.75;;;;;;;-1.53;47.05;103102.38;4977919;28;20120;-74
2023/04/04 04:03:56;;;;;;;1.90;0.57;;;;;;;-1.57;46.88;103105.63;4977237;28;20133;-76
2023/04/04 04:06:22;;;;;;;2.63;0.50;;;;;;;-1.58;47.11;103096.13;4982197;28;20056;-79
2023/04/04 04:08:47;;;;;;;2.95;0.45;;;;;;;-1.66;47.24;103095.81;4979998;28;20045;-73
2023/04/04 04:11:13;;;;;;;1.48;0.50;;;;;;;-1.62;47.22;103096.81;4981976;28;20187;-72
2023/04/04 04:13:39;;;;;;;1.73;0.57;;;;;;;-1.60;47.05;103090.06;4979152;28;20380;-73
2023/04/04 04:16:05;;;;;;;1.90;0.55;;;;;;;-1.68;47.04;103096.53;4978299;28;20057;-72
2023/04/04 04:18:31;;;;;;;2.25;0.57;;;;;;;-1.69;47.16;103097.34;4983410;28;20949;-73
2023/04/04 04:20:58;;;;;;;2.97;0.82;;;;;;;-1.64;47.12;103098.44;4981358;28;20038;-73
2023/04/04 04:23:24;;;;;;;3.47;1.45;;;;;;;-1.70;47.18;103093.03;4961338;28;20491;-73
2023/04/04 04:25:50;;;;;;;2.05;0.82;;;;;;;-1.76;47.17;103092.72;4973451;28;20041;-73
2023/04/04 04:28:19;;;;;;;3.60;1.23;;;;;;;-1.87;47.57;103095.66;4982335;28;20768;-72
2023/04/04 04:30:46;;;;;;;4.28;1.15;;;;;;;-1.98;47.77;103085.72;4981639;28;20034;-72
2023/04/04 04:33:12;;;;;;;3.58;0.60;;;;;;;-2.05;47.88;103089.66;4981978;28;20030;-71
2023/04/04 04:35:49;;;;;;;3.90;0.75;;;;;;;-2.14;48.01;103089.22;4975589;28;20148;-72
2023/04/04 04:38:14;;;;;;;3.15;0.80;;;;;;;-2.15;48.23;103092.59;4979478;28;20030;-71
2023/04/04 04:40:40;;;;;;;3.70;1.00;;;;;;;-2.05;48.00;103090.53;4983988;28;20125;-75
2023/04/04 04:43:13;;;;;;;1.25;0.60;;;;;;;-1.99;47.78;103095.09;4976521;28;20026;-76
2023/04/04 04:45:41;;;;;;;1.25;0.50;;;;;;;-2.11;48.02;103091.91;4988158;28;20049;-77
2023/04/04 04:48:08;;;;;;;2.75;0.75;;;;;;;-2.10;47.79;103099.69;4989645;28;20205;-77
2023/04/04 04:50:42;;;;;;;2.35;0.40;;;;;;;-2.10;48.08;103102.25;4989090;28;20038;-78
2023/04/04 04:53:09;;;;;;;1.65;0.50;;;;;;;-2.07;47.76;103101.53;5000608;28;20046;-75
2023/04/04 04:55:35;;;;;;;2.75;0.52;;;;;;;-2.11;47.77;103095.38;4983335;28;20034;-79
2023/04/04 04:58:09;;;;;;;4.45;0.73;;;;;;;-2.21;47.95;103095.72;4987107;28;20121;-74
2023/04/04 05:00:36;;;;;;;2.45;0.60;;;;;;;-2.16;47.72;103096.81;4986354;28;20123;-77
2023/04/04 05:03:05;;;;;;;2.15;0.90;;;;;;;-2.09;47.82;103103.13;4986523;28;20502;-76
2023/04/04 05:05:38;;;;;;;5.85;1.40;;;;;;;-2.14;47.82;103104.59;4983304;28;20069;-78
2023/04/04 05:08:08;;;;;;;7.22;1.77;;;;;;;-2.18;47.89;103111.25;4985615;28;20026;-76
2023/04/04 05:10:38;;;;;;;5.45;1.85;;;;;;;-2.16;48.02;103116.44;4973644;28;20034;-77
2023/04/04 05:13:04;;;;;;;4.72;1.52;;;;;;;-2.14;47.79;103117.41;4980379;28;20048;-77
2023/04/04 05:15:38;;;;;;;5.85;1.60;;;;;;;-2.06;47.84;103121.22;4962159;28;20045;-77
2023/04/04 05:18:04;;;;;;;3.60;0.85;;;;;;;-1.97;47.57;103121.69;4979289;28;20038;-77
2023/04/04 05:20:30;;;;;;;5.15;1.25;;;;;;;-1.97;47.81;103113.97;4976774;28;20164;-76
2023/04/04 05:22:58;;;;;;;1.98;0.88;;;;;;;-1.96;48.04;103110.59;4987298;28;20128;-75
2023/04/04 05:25:32;;;;;;;5.53;0.82;;;;;;;-1.83;47.82;103105.25;4977885;28;20082;-73
2023/04/04 05:27:59;;;;;;;4.05;0.98;;;;;;;-1.74;47.63;103106.50;4982923;28;20037;-74
2023/04/04 05:30:25;;;;;;;3.38;1.15;;;;;;;-1.71;47.60;103111.75;4975537;28;20504;-76
2023/04/04 05:33:06;;;;;;;3.43;1.20;;;;;;;-1.67;47.62;103113.66;4990637;28;20089;-77
2023/04/04 05:35:33;;;;;;;3.25;1.02;;;;;;;-1.58;47.50;103111.53;4989964;28;20045;-77
2023/04/04 05:37:58;;;;;;;3.40;1.50;;;;;;;-1.50;47.03;103112.78;4984893;28;20079;-73
2023/04/04 05:40:24;;;;;;;3.53;1.40;;;;;;;-1.44;47.62;103114.72;4998213;28;20041;-73
2023/04/04 05:43:03;;;;;;;4.97;1.55;;;;;;;-1.28;47.53;103113.75;5002263;28;20033;-75
2023/04/04 05:45:34;;;;;;;6.10;1.80;;;;;;;-1.17;46.87;103122.81;4984659;28;21588;-70
2023/04/04 05:48:00;;;;;;;3.65;1.52;;;;;;;-1.07;47.02;103121.53;4985196;28;20026;-76
2023/04/04 05:50:30;;;;;;;2.90;1.60;;;;;;;-0.53;46.94;103123.88;4983432;28;20045;-76
2023/04/04 05:53:01;;;;;;;3.70;1.35;;;;;;;0.02;45.21;103121.03;4985546;28;20030;-73
2023/04/04 05:55:28;;;;;;;2.47;1.08;;;;;;;0.47;44.56;103115.91;4982834;28;20037;-76
2023/04/04 05:57:56;;;;;;;3.00;0.90;;;;;;;1.21;43.23;103113.44;4980820;28;20044;-73
2023/04/04 06:00:32;;;;;;;2.75;0.90;;;;;;;1.71;41.51;103106.59;4966811;28;20041;-73
2023/04/04 06:03:04;;;;;;;6.63;1.70;;;;;;;1.97;41.71;103102.25;4983590;28;20038;-75
2023/04/04 06:05:29;;;;;;;4.55;1.80;;;;;;;2.28;40.31;103105.78;4962730;28;20038;-75
2023/04/04 06:07:55;;;;;;;9.50;3.05;;;;;;;2.40;39.78;103105.28;4998445;28;20034;-76
2023/04/04 06:10:21;;;;;;;9.70;3.65;;;;;;;2.69;38.64;103112.19;4998376;28;20037;-75
2023/04/04 06:12:47;;;;;;;6.97;3.83;;;;;;;3.21;38.49;103109.31;4978597;28;20038;-76
2023/04/04 06:15:13;;;;;;;9.48;4.00;;;;;;;3.58;36.43;103106.88;4983894;28;20076;-76
2023/04/04 06:17:41;;;;;;;6.25;3.67;;;;;;;4.10;36.38;103103.78;4985325;28;20038;-77
2023/04/04 06:20:07;;;;;;;8.20;4.03;;;;;;;4.74;34.93;103102.53;4984822;28;20034;-75
2023/04/04 06:22:33;;;;;;;6.97;3.83;;;;;;;6.15;34.43;103095.47;4979597;28;20030;-76
2023/04/04 06:25:00;;;;;;;6.00;3.47;;;;;;;7.15;31.34;103094.97;4985655;28;20537;-73
2023/04/04 06:27:27;;;;;;;6.97;2.78;;;;;;;7.86;29.81;103093.00;4999236;28;20191;-76
2023/04/04 06:29:53;;;;;;;6.85;3.08;;;;;;;8.09;29.95;103091.41;5000037;28;20435;-76
2023/04/04 06:32:21;;;;;;;6.25;2.45;;;;;;;8.75;28.40;103093.47;4981104;28;20049;-74
2023/04/04 06:34:47;;;;;;;2.70;1.48;;;;;;;10.11;28.29;103092.66;4968019;28;20056;-72
2023/04/04 06:37:14;;;;;;;6.00;1.50;;;;;;;11.81;24.92;103095.16;4997884;28;20072;-72
2023/04/04 06:39:48;;;;;;;4.25;1.80;;;;;;;12.66;22.81;103082.78;4984293;28;20046;-71
2023/04/04 06:42:23;;;;;;;8.20;2.53;;;;;;;13.73;22.16;103082.00;4980642;28;20060;-72
2023/04/04 06:44:51;;;;;;;7.65;2.67;;;;;;;14.41;20.19;103091.22;4981764;28;20581;-72
2023/04/04 06:47:16;;;;;;;7.38;2.38;;;;;;;14.60;20.08;103081.19;4980307;28;20040;-73
2023/04/04 06:49:42;;;;;;;3.78;1.77;;;;;;;15.41;20.02;103079.28;4996823;28;20037;-72
2023/04/04 06:52:07;;;;;;;4.25;1.70;;;;;;;16.65;18.92;103077.59;4983578;28;20056;-73
2023/04/04 06:54:34;;;;;;;5.25;1.73;;;;;;;17.37;18.05;103071.75;4995131;28;20570;-71
2023/04/04 06:57:00;;;;;;;4.68;1.90;;;;;;;18.14;16.42;103069.03;4984677;28;20621;-70
2023/04/04 06:59:25;;;;;;;4.30;2.08;;;;;;;18.10;16.27;103064.78;4993901;28;20044;-73
2023/04/04 07:01:51;;;;;;;5.53;1.55;;;;;;;18.57;16.19;103073.56;4983250;28;20554;-70
2023/04/04 07:04:19;;;;;;;7.43;2.47;;;;;;;18.46;16.45;103078.44;4975951;28;20101;-69
2023/04/04 07:06:45;;;;;;;7.72;2.13;;;;;;;17.59;17.29;103082.50;4984711;28;20781;-68
2023/04/04 07:09:10;;;;;;;3.78;1.83;;;;;;;16.38;16.29;103074.00;4982294;28;20038;-69
2023/04/04 07:11:36;;;;;;;6.03;1.98;;;;;;;15.54;18.17;103072.78;4982887;28;20189;-69
2023/04/04 07:14:02;;;;;;;2.88;1.75;;;;;;;15.91;18.60;103063.88;4985561;28;20565;-69
2023/04/04 07:16:28;;;;;;;4.05;1.50;;;;;;;16.65;17.24;103061.75;4981500;28;20161;-69
2023/04/04 07:18:53;;;;;;;4.65;1.73;;;;;;;16.67;16.66;103065.19;4984849;28;20088;-69
2023/04/04 07:21:19;;;;;;;6.65;1.38;;;;;;;16.13;17.32;103071.19;4963476;28;20041;-70
2023/04/04 07:23:45;;;;;;;2.85;0.80;;;;;;;15.92;17.78;103059.47;4984529;28;20507;-69
2023/04/04 07:26:10;;;;;;;4.82;1.38;;;;;;;15.93;17.73;103059.44;4995069;28;20057;-70
2023/04/04 07:28:36;;;;;;;3.85;1.60;;;;;;;16.36;16.90;103060.84;4983624;28;20038;-72
2023/04/04 07:31:02;;;;;;;3.40;1.20;;;;;;;16.22;17.17;103063.03;4983113;28;20507;-71
2023/04/04 07:33:28;;;;;;;3.83;1.33;;;;;;;16.42;17.13;103055.41;4995545;28;20068;-70
2023/04/04 07:35:53;;;;;;;3.67;1.23;;;;;;;16.61;16.60;103054.81;4981458;28;20461;-71
2023/04/04 07:38:19;;;;;;;6.07;1.45;;;;;;;18.22;15.77;103051.97;4971493;28;20562;-72
2023/04/04 07:40:48;;;;;;;2.45;1.00;;;;;;;18.00;15.26;103051.88;4983528;28;20137;-70
2023/04/04 07:43:13;;;;;;;5.28;1.50;;;;;;;16.77;16.61;103050.81;4981596;28;20037;-70
2023/04/04 07:45:39;;;;;;;5.13;1.23;;;;;;;16.91;17.15;103045.09;4971240;28;20052;-72
2023/04/04 07:48:05;;;;;;;7.20;1.30;;;;;;;18.10;15.37;103046.28;4982248;28;20261;-72
2023/04/04 07:50:31;;;;;;;3.85;1.40;;;;;;;19.47;14.60;103044.28;4977694;28;20125;-71
2023/04/04 07:52:57;;;;;;;6.03;1.73;;;;;;;18.97;14.40;103042.84;4982688;28;20033;-71
2023/04/04 07:55:26;;;;;;;4.70;0.98;;;;;;;17.12;16.64;103045.31;4974891;28;20038;-71
2023/04/04 07:57:53;;;;;;;2.75;1.23;;;;;;;18.91;14.99;103029.84;4981319;28;20042;-69
2023/04/04 08:00:20;;;;;;;5.03;1.23;;;;;;;18.17;15.80;103035.38;4977110;28;20132;-69
2023/04/04 08:02:51;;;;;;;5.10;1.70;;;;;;;17.99;16.04;103044.88;4983687;28;20913;-71
2023/04/04 08:05:17;;;;;;;3.75;1.55;;;;;;;18.53;15.85;103044.63;4976201;28;20034;-69
2023/04/04 08:07:42;;;;;;;4.80;1.73;;;;;;;18.03;16.04;103035.06;4976761;28;20120;-69
2023/04/04 08:10:08;;;;;;;5.40;1.60;;;;;;;18.12;16.02;103039.09;4979779;28;20087;-70
2023/04/04 08:12:34;;;;;;;4.75;1.27;;;;;;;17.91;16.39;103040.78;4978964;28;20045;-70
2023/04/04 08:15:00;;;;;;;4.80;1.30;;;;;;;17.20;17.23;103038.84;4982185;28;20081;-70
2023/04/04 08:17:27;;;;;;;4.82;1.30;;;;;;;16.91;17.16;103031.91;4979979;28;20120;-72
2023/04/04 08:19:52;;;;;;;2.97;0.90;;;;;;;16.95;17.16;103037.91;4981781;28;20099;-69
2023/04/04 08:22:18;;;;;;;3.05;1.02;;;;;;;16.62;17.11;103036.31;4978742;28;20041;-70
2023/04/04 08:24:45;;;;;;;4.57;1.02;;;;;;;17.28;17.27;103027.16;4980896;28;20823;-68
2023/04/04 08:27:11;;;;;;;3.72;1.55;;;;;;;16.96;17.47;103037.03;4997667;28;20030;-68
2023/04/04 08:29:36;;;;;;;4.32;1.13;;;;;;;16.76;16.95;103033.25;4978974;28;20037;-69
2023/04/04 08:32:02;;;;;;;3.92;1.00;;;;;;;16.06;17.88;103040.63;4981874;28;20034;-71
2023/04/04 08:34:28;;;;;;;2.30;0.90;;;;;;;15.63;18.01;103033.91;4972826;28;20038;-69
2023/04/04 08:36:54;;;;;;;3.53;0.70;;;;;;;15.44;18.87;103037.06;4982247;28;20113;-70
2023/04/04 08:39:19;;;;;;;3.05;1.20;;;;;;;15.33;18.73;103031.19;4978082;28;20079;-68
2023/04/04 08:41:45;;;;;;;3.75;0.95;;;;;;;15.07;20.15;103035.31;4995682;28;20118;-70
2023/04/04 08:44:19;;;;;;;7.43;0.90;;;;;;;15.02;18.53;103045.09;4979937;28;20063;-70
2023/04/04 08:46:46;;;;;;;1.80;0.80;;;;;;;14.67;19.13;103041.53;4982144;28;20045;-71
2023/04/04 08:49:14;;;;;;;4.18;0.75;;;;;;;13.55;20.07;103037.66;4993338;28;20049;-71
2023/04/04 08:51:43;;;;;;;4.72;0.85;;;;;;;13.56;21.64;103034.13;4982728;28;20034;-70
2023/04/04 08:54:11;;;;;;;2.92;0.90;;;;;;;12.99;21.51;103043.84;4981332;28;20125;-71
2023/04/04 08:56:37;;;;;;;4.47;1.50;;;;;;;12.57;21.60;103046.16;4977542;28;20053;-71
2023/04/04 08:59:03;;;;;;;2.45;1.00;;;;;;;11.91;22.78;103047.03;4982206;28;20050;-71
2023/04/04 09:01:29;;;;;;;2.83;0.57;;;;;;;11.24;23.76;103045.84;4980726;28;20655;-70
2023/04/04 09:03:59;;;;;;;4.97;0.80;;;;;;;11.03;24.23;103046.91;4982199;28;20042;-70
2023/04/04 09:06:25;;;;;;;5.07;0.70;;;;;;;10.06;24.99;103044.78;4982095;28;20684;-70
2023/04/04 09:08:52;;;;;;;6.88;0.70;;;;;;;10.22;24.44;103050.81;4985716;28;20056;-71
2023/04/04 09:11:20;;;;;;;1.23;0.60;;;;;;;10.78;24.97;103051.41;4981177;28;20060;-70
2023/04/04 09:13:49;;;;;;;2.05;0.70;;;;;;;10.99;24.87;103040.81;4988371;28;20041;-69
2023/04/04 09:16:16;;;;;;;2.00;0.70;;;;;;;10.74;23.24;103041.84;4983622;28;20038;-71
2023/04/04 09:18:42;;;;;;;2.08;0.30;;;;;;;10.27;23.88;103045.56;5001214;28;20038;-70
2023/04/04 09:21:11;;;;;;;0.75;0.40;;;;;;;10.05;24.38;103037.78;5001374;28;20517;-69
2023/04/04 09:23:37;;;;;;;1.83;0.38;;;;;;;9.88;23.97;103029.13;4981828;28;20040;-70
2023/04/04 09:26:04;;;;;;;4.85;0.35;;;;;;;10.22;22.22;103041.22;4984668;28;20045;-70
2023/04/04 09:28:30;;;;;;;5.38;0.50;;;;;;;10.02;23.05;103033.44;4972228;28;20038;-70
2023/04/04 09:31:01;;;;;;;2.58;0.47;;;;;;;10.74;21.99;103039.22;5000198;28;20278;-70
2023/04/04 09:33:26;;;;;;;9.07;0.95;;;;;;;10.56;22.46;103037.59;4980541;28;20034;-70
2023/04/04 09:35:58;;;;;;;2.80;0.60;;;;;;;11.36;21.53;103030.06;4985021;28;20148;-69
2023/04/04 09:38:29;;;;;;;2.00;0.63;;;;;;;11.04;21.63;103033.81;4981639;28;20041;-70
2023/04/04 09:40:55;;;;;;;2.27;0.50;;;;;;;10.64;22.10;103043.66;4999367;28;20046;-70
2023/04/04 09:43:23;;;;;;;2.28;0.52;;;;;;;10.45;22.28;103045.47;4975088;28;20507;-69
2023/04/04 09:45:50;;;;;;;4.18;1.08;;;;;;;10.59;20.82;103037.56;4984351;28;20042;-70
2023/04/04 09:48:29;;;;;;;1.75;0.47;;;;;;;10.56;21.54;103030.59;4975961;28;20069;-71
2023/04/04 09:50:57;;;;;;;2.85;0.68;;;;;;;10.89;21.36;103028.69;4985164;28;20172;-71
2023/04/04 09:53:23;;;;;;;2.65;0.52;;;;;;;11.10;21.97;103032.03;4979988;28;20046;-69
2023/04/04 09:55:50;;;;;;;4.35;0.98;;;;;;;11.35;21.64;103030.06;4999594;28;20042;-70
2023/04/04 09:58:25;;;;;;;1.30;0.43;;;;;;;10.78;22.25;103020.88;4982414;28;20041;-71
2023/04/04 10:00:57;;;;;;;4.15;0.80;;;;;;;10.65;22.44;103021.84;4983821;28;20050;-70
2023/04/04 10:03:23;;;;;;;2.17;0.50;;;;;;;10.67;22.86;103025.31;4981190;28;20040;-70
2023/04/04 10:06:00;;;;;;;2.80;0.70;;;;;;;10.82;22.00;103024.38;4984952;28;20042;-70
2023/04/04 10:08:27;;;;;;;2.75;0.40;;;;;;;10.65;22.67;103019.22;4980282;28;20045;-69
2023/04/04 10:10:59;;;;;;;6.28;0.63;;;;;;;11.07;21.51;103021.59;4984626;28;20064;-70
2023/04/04 10:13:30;;;;;;;4.28;0.93;;;;;;;11.41;20.62;103012.53;4981023;28;20100;-69
2023/04/04 10:15:57;;;;;;;3.53;0.30;;;;;;;10.81;21.39;103010.41;4983100;28;20160;-69
2023/04/04 10:18:33;;;;;;;1.80;0.30;;;;;;;10.19;21.29;103019.44;4979656;28;20132;-70
2023/04/04 10:21:03;;;;;;;3.55;0.63;;;;;;;9.93;23.28;103012.59;4984994;28;20033;-70
2023/04/04 10:23:29;;;;;;;3.40;0.93;;;;;;;10.06;22.92;103009.91;4979900;28;20258;-69
2023/04/04 10:25:57;;;;;;;2.47;0.57;;;;;;;10.00;22.96;103008.22;4983414;28;20049;-71
2023/04/04 10:28:25;;;;;;;3.88;0.60;;;;;;;10.14;23.24;103011.63;4982304;28;20045;-69
2023/04/04 10:31:19;;;;;;;1.73;0.50;;;;;;;11.09;22.27;103005.00;4999397;28;20091;-71
2023/04/04 10:34:12;;;;;;;3.80;1.08;;;;;;;11.02;21.53;103009.41;4983243;28;21353;-70
2023/04/04 10:37:06;;;;;;;5.60;0.77;;;;;;;10.40;22.55;103006.28;4977231;28;20038;-70
2023/04/04 10:39:51;;;;;;;4.05;0.60;;;;;;;10.22;22.82;103003.78;4978530;28;20287;-70
2023/04/04 10:42:18;;;;;;;6.20;1.08;;;;;;;10.24;23.94;103009.88;4982475;28;20034;-70
2023/04/04 10:44:44;;;;;;;5.38;0.93;;;;;;;10.11;23.00;103006.44;4975400;28;20042;-70
2023/04/04 10:47:16;;;;;;;3.03;0.73;;;;;;;10.29;22.27;103004.63;4985330;28;20096;-69
2023/04/04 10:49:46;;;;;;;2.92;1.13;;;;;;;10.14;23.05;103005.53;4982441;28;20045;-69
2023/04/04 10:52:17;;;;;;;1.60;0.38;;;;;;;10.02;22.75;102999.50;4984659;28;20048;-69
2023/04/04 10:54:43;;;;;;;2.53;0.68;;;;;;;9.76;23.66;103003.91;4960514;28;20739;-70
2023/04/04 10:57:11;;;;;;;2.55;0.75;;;;;;;9.87;24.99;103006.50;4995896;28;20033;-69
2023/04/04 10:59:59;;;;;;;3.20;0.77;;;;;;;10.50;24.03;102999.25;4994056;28;20131;-70
2023/04/04 11:02:57;;;;;;;3.72;0.93;;;;;;;10.10;24.33;103007.31;4982589;28;20124;-69
2023/04/04 11:05:36;;;;;;;4.63;1.58;;;;;;;10.12;24.00;102991.59;4979584;28;20576;-69
2023/04/04 11:08:05;;;;;;;2.45;0.90;;;;;;;9.84;23.27;102990.88;4980457;28;20160;-69
2023/04/04 11:10:34;;;;;;;5.82;0.93;;;;;;;9.88;25.50;102989.94;4980652;28;20152;-69
2023/04/04 11:13:10;;;;;;;3.47;1.00;;;;;;;10.48;24.42;102982.72;4984310;28;20506;-69
2023/04/04 11:15:50;;;;;;;5.70;1.10;;;;;;;10.40;23.21;102984.50;4980364;28;20050;-70
2023/04/04 11:18:18;;;;;;;5.93;1.15;;;;;;;10.10;23.92;102978.56;4980019;28;20036;-70
2023/04/04 11:20:46;;;;;;;7.00;1.40;;;;;;;9.96;24.48;102981.22;4978576;28;20046;-69
2023/04/04 11:23:24;;;;;;;4.00;1.50;;;;;;;10.56;24.38;102973.06;4997685;28;20992;-69
2023/04/04 11:25:51;;;;;;;2.63;1.02;;;;;;;10.09;23.73;102973.34;4980598;28;20038;-69
2023/04/04 11:28:32;;;;;;;6.45;1.20;;;;;;;10.08;24.84;102967.25;4993449;28;20103;-68
2023/04/04 11:31:16;;;;;;;2.67;1.00;;;;;;;10.77;24.99;102972.06;4979519;28;20628;-70